sensor_id;sensor_type;location;lat;lon;timestamp;P1;durP1;ratioP1;P2;durP2;ratioP2
31724;SDS011;18306;40.960;14.836;2023-05-07T00:00:55;6.53;;;5.35;;
31724;SDS011;18306;40.960;14.836;2023-05-07T00:03:22;12.40;;;7.72;;
31724;SDS011;18306;40.960;14.836;2023-05-07T00:05:49;15.18;;;8.55;;
31724;SDS011;18306;40.960;14.836;2023-05-07T00:08:17;16.25;;;8.15;;
31724;SDS011;18306;40.960;14.836;2023-05-07T00:10:44;14.90;;;8.35;;
31724;SDS011;18306;40.960;14.836;2023-05-07T00:13:12;13.05;;;6.97;;
31724;SDS011;18306;40.960;14.836;2023-05-07T00:15:39;13.65;;;7.70;;
31724;SDS011;18306;40.960;14.836;2023-05-07T00:18:06;12.30;;;6.95;;
31724;SDS011;18306;40.960;14.836;2023-05-07T00:20:33;13.88;;;7.18;;
31724;SDS011;18306;40.960;14.836;2023-05-07T00:23:00;12.75;;;5.45;;
31724;SDS011;18306;40.960;14.836;2023-05-07T00:25:27;12.10;;;7.28;;
31724;SDS011;18306;40.960;14.836;2023-05-07T00:27:54;16.55;;;6.88;;
31724;SDS011;18306;40.960;14.836;2023-05-07T00:30:21;22.02;;;7.40;;
31724;SDS011;18306;40.960;14.836;2023-05-07T00:32:48;18.33;;;6.95;;
31724;SDS011;18306;40.960;14.836;2023-05-07T00:35:16;10.73;;;6.80;;
31724;SDS011;18306;40.960;14.836;2023-05-07T00:37:43;14.55;;;7.50;;
31724;SDS011;18306;40.960;14.836;2023-05-07T00:40:10;15.38;;;7.68;;
31724;SDS011;18306;40.960;14.836;2023-05-07T00:42:38;10.27;;;5.90;;
31724;SDS011;18306;40.960;14.836;2023-05-07T00:45:05;7.93;;;5.70;;
31724;SDS011;18306;40.960;14.836;2023-05-07T00:47:35;20.42;;;7.72;;
31724;SDS011;18306;40.960;14.836;2023-05-07T00:50:03;17.98;;;7.32;;
31724;SDS011;18306;40.960;14.836;2023-05-07T00:52:31;13.52;;;6.90;;
31724;SDS011;18306;40.960;14.836;2023-05-07T00:54:59;10.13;;;6.65;;
31724;SDS011;18306;40.960;14.836;2023-05-07T00:57:33;11.60;;;6.97;;
31724;SDS011;18306;40.960;14.836;2023-05-07T01:00:06;10.73;;;6.57;;
31724;SDS011;18306;40.960;14.836;2023-05-07T01:02:38;16.60;;;6.93;;
31724;SDS011;18306;40.960;14.836;2023-05-07T01:05:06;12.38;;;6.55;;
31724;SDS011;18306;40.960;14.836;2023-05-07T01:07:35;11.25;;;6.70;;
31724;SDS011;18306;40.960;14.836;2023-05-07T01:10:05;9.77;;;6.38;;
31724;SDS011;18306;40.960;14.836;2023-05-07T01:12:34;14.20;;;6.82;;
31724;SDS011;18306;40.960;14.836;2023-05-07T01:15:03;18.13;;;6.95;;
31724;SDS011;18306;40.960;14.836;2023-05-07T01:17:35;10.93;;;6.70;;
31724;SDS011;18306;40.960;14.836;2023-05-07T01:20:04;15.27;;;6.25;;
31724;SDS011;18306;40.960;14.836;2023-05-07T01:22:35;8.25;;;6.00;;
31724;SDS011;18306;40.960;14.836;2023-05-07T01:25:03;7.65;;;6.13;;
31724;SDS011;18306;40.960;14.836;2023-05-07T01:27:32;9.45;;;6.13;;
31724;SDS011;18306;40.960;14.836;2023-05-07T01:30:00;13.60;;;6.72;;
31724;SDS011;18306;40.960;14.836;2023-05-07T01:35:07;11.10;;;6.75;;
31724;SDS011;18306;40.960;14.836;2023-05-07T01:37:39;11.77;;;7.03;;
31724;SDS011;18306;40.960;14.836;2023-05-07T01:40:07;11.20;;;6.30;;
31724;SDS011;18306;40.960;14.836;2023-05-07T01:42:34;11.70;;;7.20;;
31724;SDS011;18306;40.960;14.836;2023-05-07T01:45:02;13.98;;;7.75;;
31724;SDS011;18306;40.960;14.836;2023-05-07T01:47:29;11.02;;;7.10;;
31724;SDS011;18306;40.960;14.836;2023-05-07T01:49:57;13.00;;;6.65;;
31724;SDS011;18306;40.960;14.836;2023-05-07T01:52:24;15.70;;;7.05;;
31724;SDS011;18306;40.960;14.836;2023-05-07T01:54:51;14.60;;;7.88;;
31724;SDS011;18306;40.960;14.836;2023-05-07T01:57:18;10.68;;;6.45;;
31724;SDS011;18306;40.960;14.836;2023-05-07T01:59:45;11.27;;;6.47;;
31724;SDS011;18306;40.960;14.836;2023-05-07T02:02:12;12.75;;;7.00;;
31724;SDS011;18306;40.960;14.836;2023-05-07T02:04:42;14.18;;;7.30;;
31724;SDS011;18306;40.960;14.836;2023-05-07T02:07:10;15.18;;;8.05;;
31724;SDS011;18306;40.960;14.836;2023-05-07T02:09:37;10.85;;;7.20;;
31724;SDS011;18306;40.960;14.836;2023-05-07T02:12:04;16.17;;;7.35;;
31724;SDS011;18306;40.960;14.836;2023-05-07T02:14:32;15.35;;;7.80;;
31724;SDS011;18306;40.960;14.836;2023-05-07T02:16:59;14.05;;;7.30;;
31724;SDS011;18306;40.960;14.836;2023-05-07T02:19:26;16.95;;;7.78;;
31724;SDS011;18306;40.960;14.836;2023-05-07T02:21:53;17.85;;;9.07;;
31724;SDS011;18306;40.960;14.836;2023-05-07T02:24:20;15.45;;;8.63;;
31724;SDS011;18306;40.960;14.836;2023-05-07T02:26:47;17.98;;;9.25;;
31724;SDS011;18306;40.960;14.836;2023-05-07T02:29:14;14.65;;;8.02;;
31724;SDS011;18306;40.960;14.836;2023-05-07T02:31:41;18.88;;;8.82;;
31724;SDS011;18306;40.960;14.836;2023-05-07T02:34:08;13.52;;;8.43;;
31724;SDS011;18306;40.960;14.836;2023-05-07T02:36:35;13.52;;;8.40;;
31724;SDS011;18306;40.960;14.836;2023-05-07T02:39:10;17.05;;;8.52;;
31724;SDS011;18306;40.960;14.836;2023-05-07T02:41:38;19.83;;;9.00;;
31724;SDS011;18306;40.960;14.836;2023-05-07T02:44:05;23.50;;;7.85;;
31724;SDS011;18306;40.960;14.836;2023-05-07T02:46:33;12.18;;;8.18;;
31724;SDS011;18306;40.960;14.836;2023-05-07T02:49:04;14.50;;;7.78;;
31724;SDS011;18306;40.960;14.836;2023-05-07T02:51:31;17.92;;;8.50;;
31724;SDS011;18306;40.960;14.836;2023-05-07T02:54:01;17.83;;;9.70;;
31724;SDS011;18306;40.960;14.836;2023-05-07T02:56:30;12.98;;;7.97;;
31724;SDS011;18306;40.960;14.836;2023-05-07T02:58:57;12.63;;;6.93;;
31724;SDS011;18306;40.960;14.836;2023-05-07T03:01:28;13.68;;;7.72;;
31724;SDS011;18306;40.960;14.836;2023-05-07T03:04:02;13.65;;;7.28;;
31724;SDS011;18306;40.960;14.836;2023-05-07T03:06:29;8.95;;;6.47;;
31724;SDS011;18306;40.960;14.836;2023-05-07T03:08:56;13.93;;;7.82;;
31724;SDS011;18306;40.960;14.836;2023-05-07T03:11:23;17.73;;;7.43;;
31724;SDS011;18306;40.960;14.836;2023-05-07T03:13:51;15.45;;;6.50;;
31724;SDS011;18306;40.960;14.836;2023-05-07T03:16:20;9.82;;;6.60;;
31724;SDS011;18306;40.960;14.836;2023-05-07T03:18:47;12.05;;;6.80;;
31724;SDS011;18306;40.960;14.836;2023-05-07T03:21:14;11.13;;;6.10;;
31724;SDS011;18306;40.960;14.836;2023-05-07T03:23:41;14.70;;;6.93;;
31724;SDS011;18306;40.960;14.836;2023-05-07T03:26:08;13.60;;;7.72;;
31724;SDS011;18306;40.960;14.836;2023-05-07T03:28:36;17.70;;;7.80;;
31724;SDS011;18306;40.960;14.836;2023-05-07T03:31:06;17.00;;;7.43;;
31724;SDS011;18306;40.960;14.836;2023-05-07T03:33:33;14.18;;;7.72;;
31724;SDS011;18306;40.960;14.836;2023-05-07T03:36:01;13.95;;;6.97;;
31724;SDS011;18306;40.960;14.836;2023-05-07T03:38:28;12.43;;;6.88;;
31724;SDS011;18306;40.960;14.836;2023-05-07T03:40:55;14.30;;;7.30;;
31724;SDS011;18306;40.960;14.836;2023-05-07T03:43:23;11.52;;;7.10;;
31724;SDS011;18306;40.960;14.836;2023-05-07T03:45:58;17.23;;;6.65;;
31724;SDS011;18306;40.960;14.836;2023-05-07T03:48:27;15.88;;;8.95;;
31724;SDS011;18306;40.960;14.836;2023-05-07T03:50:59;19.83;;;8.45;;
31724;SDS011;18306;40.960;14.836;2023-05-07T03:53:31;21.92;;;8.48;;
31724;SDS011;18306;40.960;14.836;2023-05-07T03:55:58;16.10;;;8.77;;
31724;SDS011;18306;40.960;14.836;2023-05-07T03:58:25;17.25;;;7.95;;
31724;SDS011;18306;40.960;14.836;2023-05-07T04:00:54;29.77;;;11.52;;
31724;SDS011;18306;40.960;14.836;2023-05-07T04:03:26;15.85;;;9.57;;
31724;SDS011;18306;40.960;14.836;2023-05-07T04:05:56;16.67;;;8.48;;
31724;SDS011;18306;40.960;14.836;2023-05-07T04:08:23;13.95;;;8.25;;
31724;SDS011;18306;40.960;14.836;2023-05-07T04:10:56;17.73;;;8.32;;
31724;SDS011;18306;40.960;14.836;2023-05-07T04:13:26;16.45;;;9.40;;
31724;SDS011;18306;40.960;14.836;2023-05-07T04:15:54;22.08;;;10.43;;
31724;SDS011;18306;40.960;14.836;2023-05-07T04:18:22;18.63;;;9.95;;
31724;SDS011;18306;40.960;14.836;2023-05-07T04:20:49;18.85;;;10.07;;
31724;SDS011;18306;40.960;14.836;2023-05-07T04:23:16;23.00;;;10.50;;
31724;SDS011;18306;40.960;14.836;2023-05-07T04:25:44;21.85;;;10.48;;
31724;SDS011;18306;40.960;14.836;2023-05-07T04:28:31;18.80;;;9.90;;
31724;SDS011;18306;40.960;14.836;2023-05-07T04:30:58;17.15;;;9.93;;
31724;SDS011;18306;40.960;14.836;2023-05-07T04:33:27;20.27;;;10.63;;
31724;SDS011;18306;40.960;14.836;2023-05-07T04:35:56;20.67;;;10.77;;
31724;SDS011;18306;40.960;14.836;2023-05-07T04:38:24;18.88;;;9.10;;
31724;SDS011;18306;40.960;14.836;2023-05-07T04:40:53;14.82;;;8.60;;
31724;SDS011;18306;40.960;14.836;2023-05-07T04:43:24;16.05;;;8.85;;
31724;SDS011;18306;40.960;14.836;2023-05-07T04:45:51;24.38;;;9.68;;
31724;SDS011;18306;40.960;14.836;2023-05-07T04:48:19;16.58;;;8.73;;
31724;SDS011;18306;40.960;14.836;2023-05-07T04:50:48;16.40;;;9.45;;
31724;SDS011;18306;40.960;14.836;2023-05-07T04:53:17;22.95;;;10.23;;
31724;SDS011;18306;40.960;14.836;2023-05-07T04:55:44;24.23;;;9.82;;
31724;SDS011;18306;40.960;14.836;2023-05-07T04:58:12;20.65;;;10.52;;
31724;SDS011;18306;40.960;14.836;2023-05-07T05:00:41;19.20;;;9.98;;
31724;SDS011;18306;40.960;14.836;2023-05-07T05:03:08;21.23;;;10.85;;
31724;SDS011;18306;40.960;14.836;2023-05-07T05:05:38;22.02;;;10.93;;
31724;SDS011;18306;40.960;14.836;2023-05-07T05:08:05;22.92;;;11.10;;
31724;SDS011;18306;40.960;14.836;2023-05-07T05:10:35;27.92;;;10.98;;
31724;SDS011;18306;40.960;14.836;2023-05-07T05:13:02;20.83;;;10.63;;
31724;SDS011;18306;40.960;14.836;2023-05-07T05:15:29;24.02;;;11.63;;
31724;SDS011;18306;40.960;14.836;2023-05-07T05:17:56;21.13;;;10.13;;
31724;SDS011;18306;40.960;14.836;2023-05-07T05:20:24;28.98;;;10.82;;
31724;SDS011;18306;40.960;14.836;2023-05-07T05:22:51;19.35;;;9.32;;
31724;SDS011;18306;40.960;14.836;2023-05-07T05:25:18;19.13;;;10.25;;
31724;SDS011;18306;40.960;14.836;2023-05-07T05:27:46;20.92;;;10.30;;
31724;SDS011;18306;40.960;14.836;2023-05-07T05:30:13;22.05;;;9.65;;
31724;SDS011;18306;40.960;14.836;2023-05-07T05:32:44;20.77;;;10.57;;
31724;SDS011;18306;40.960;14.836;2023-05-07T05:35:11;19.85;;;10.45;;
31724;SDS011;18306;40.960;14.836;2023-05-07T05:37:46;18.80;;;9.52;;
31724;SDS011;18306;40.960;14.836;2023-05-07T05:40:29;22.52;;;9.80;;
31724;SDS011;18306;40.960;14.836;2023-05-07T05:43:03;25.02;;;11.82;;
31724;SDS011;18306;40.960;14.836;2023-05-07T05:45:45;21.42;;;9.02;;
31724;SDS011;18306;40.960;14.836;2023-05-07T05:48:20;13.45;;;7.88;;
31724;SDS011;18306;40.960;14.836;2023-05-07T05:50:48;18.85;;;8.82;;
31724;SDS011;18306;40.960;14.836;2023-05-07T05:53:19;20.42;;;8.95;;
31724;SDS011;18306;40.960;14.836;2023-05-07T05:55:46;17.45;;;9.27;;
31724;SDS011;18306;40.960;14.836;2023-05-07T05:58:14;21.88;;;8.68;;
31724;SDS011;18306;40.960;14.836;2023-05-07T06:00:49;21.13;;;9.48;;
31724;SDS011;18306;40.960;14.836;2023-05-07T06:03:19;40.70;;;19.23;;
31724;SDS011;18306;40.960;14.836;2023-05-07T06:05:47;20.95;;;8.80;;
31724;SDS011;18306;40.960;14.836;2023-05-07T06:08:14;18.38;;;8.88;;
31724;SDS011;18306;40.960;14.836;2023-05-07T06:10:41;23.10;;;10.32;;
31724;SDS011;18306;40.960;14.836;2023-05-07T06:13:08;17.73;;;8.38;;
31724;SDS011;18306;40.960;14.836;2023-05-07T06:15:37;16.38;;;8.63;;
31724;SDS011;18306;40.960;14.836;2023-05-07T06:18:09;16.73;;;8.93;;
31724;SDS011;18306;40.960;14.836;2023-05-07T06:20:36;16.23;;;8.18;;
31724;SDS011;18306;40.960;14.836;2023-05-07T06:23:06;15.88;;;9.40;;
31724;SDS011;18306;40.960;14.836;2023-05-07T06:25:34;14.23;;;7.63;;
31724;SDS011;18306;40.960;14.836;2023-05-07T06:28:01;17.38;;;11.48;;
31724;SDS011;18306;40.960;14.836;2023-05-07T06:30:28;21.48;;;8.48;;
31724;SDS011;18306;40.960;14.836;2023-05-07T06:32:56;19.65;;;9.10;;
31724;SDS011;18306;40.960;14.836;2023-05-07T06:35:24;14.65;;;7.78;;
31724;SDS011;18306;40.960;14.836;2023-05-07T06:37:50;18.25;;;8.57;;
31724;SDS011;18306;40.960;14.836;2023-05-07T06:40:22;17.40;;;8.73;;
31724;SDS011;18306;40.960;14.836;2023-05-07T06:42:50;22.25;;;9.63;;
31724;SDS011;18306;40.960;14.836;2023-05-07T06:45:23;14.98;;;8.65;;
31724;SDS011;18306;40.960;14.836;2023-05-07T06:47:53;13.60;;;9.25;;
31724;SDS011;18306;40.960;14.836;2023-05-07T06:50:22;20.92;;;10.80;;
31724;SDS011;18306;40.960;14.836;2023-05-07T06:52:50;24.48;;;10.98;;
31724;SDS011;18306;40.960;14.836;2023-05-07T06:55:17;17.30;;;9.15;;
31724;SDS011;18306;40.960;14.836;2023-05-07T06:57:45;15.77;;;9.30;;
31724;SDS011;18306;40.960;14.836;2023-05-07T07:00:13;15.75;;;8.98;;
31724;SDS011;18306;40.960;14.836;2023-05-07T07:02:50;18.67;;;9.25;;
31724;SDS011;18306;40.960;14.836;2023-05-07T07:05:20;17.25;;;9.80;;
31724;SDS011;18306;40.960;14.836;2023-05-07T07:07:47;20.70;;;10.18;;
31724;SDS011;18306;40.960;14.836;2023-05-07T07:10:19;16.80;;;8.27;;
31724;SDS011;18306;40.960;14.836;2023-05-07T07:12:48;18.60;;;10.35;;
31724;SDS011;18306;40.960;14.836;2023-05-07T07:15:16;19.98;;;9.90;;
31724;SDS011;18306;40.960;14.836;2023-05-07T07:17:44;16.70;;;8.77;;
31724;SDS011;18306;40.960;14.836;2023-05-07T07:20:11;12.35;;;8.30;;
31724;SDS011;18306;40.960;14.836;2023-05-07T07:22:39;15.13;;;7.22;;
31724;SDS011;18306;40.960;14.836;2023-05-07T07:25:06;15.00;;;8.63;;
31724;SDS011;18306;40.960;14.836;2023-05-07T07:27:34;14.15;;;7.22;;
31724;SDS011;18306;40.960;14.836;2023-05-07T07:30:02;13.18;;;7.35;;
31724;SDS011;18306;40.960;14.836;2023-05-07T07:32:32;20.35;;;8.95;;
31724;SDS011;18306;40.960;14.836;2023-05-07T07:35:00;9.98;;;7.28;;
31724;SDS011;18306;40.960;14.836;2023-05-07T07:37:28;15.07;;;6.78;;
31724;SDS011;18306;40.960;14.836;2023-05-07T07:39:57;12.93;;;7.53;;
31724;SDS011;18306;40.960;14.836;2023-05-07T07:42:24;7.43;;;6.30;;
31724;SDS011;18306;40.960;14.836;2023-05-07T07:44:51;8.38;;;5.05;;
31724;SDS011;18306;40.960;14.836;2023-05-07T07:47:21;10.27;;;5.40;;
31724;SDS011;18306;40.960;14.836;2023-05-07T07:49:50;8.13;;;5.43;;
31724;SDS011;18306;40.960;14.836;2023-05-07T07:52:18;8.30;;;3.97;;
31724;SDS011;18306;40.960;14.836;2023-05-07T07:54:45;11.93;;;5.90;;
31724;SDS011;18306;40.960;14.836;2023-05-07T07:57:13;7.60;;;4.88;;
31724;SDS011;18306;40.960;14.836;2023-05-07T07:59:40;8.13;;;5.10;;
31724;SDS011;18306;40.960;14.836;2023-05-07T08:02:10;8.32;;;4.80;;
31724;SDS011;18306;40.960;14.836;2023-05-07T08:04:38;7.05;;;4.53;;
31724;SDS011;18306;40.960;14.836;2023-05-07T08:07:07;8.57;;;5.63;;
31724;SDS011;18306;40.960;14.836;2023-05-07T08:09:37;7.03;;;4.38;;
31724;SDS011;18306;40.960;14.836;2023-05-07T08:12:05;9.70;;;5.15;;
31724;SDS011;18306;40.960;14.836;2023-05-07T08:14:34;7.65;;;4.88;;
31724;SDS011;18306;40.960;14.836;2023-05-07T08:17:04;9.38;;;4.88;;
31724;SDS011;18306;40.960;14.836;2023-05-07T08:19:33;7.72;;;4.18;;
31724;SDS011;18306;40.960;14.836;2023-05-07T08:22:02;10.80;;;6.05;;
31724;SDS011;18306;40.960;14.836;2023-05-07T08:24:30;8.55;;;4.97;;
31724;SDS011;18306;40.960;14.836;2023-05-07T08:26:57;7.90;;;4.95;;
31724;SDS011;18306;40.960;14.836;2023-05-07T08:29:24;5.93;;;4.55;;
31724;SDS011;18306;40.960;14.836;2023-05-07T08:31:58;7.65;;;4.20;;
31724;SDS011;18306;40.960;14.836;2023-05-07T08:34:34;5.90;;;4.18;;
31724;SDS011;18306;40.960;14.836;2023-05-07T08:37:03;6.68;;;4.53;;
31724;SDS011;18306;40.960;14.836;2023-05-07T08:39:31;6.10;;;3.45;;
31724;SDS011;18306;40.960;14.836;2023-05-07T08:41:59;7.78;;;3.35;;
31724;SDS011;18306;40.960;14.836;2023-05-07T08:44:34;10.18;;;3.83;;
31724;SDS011;18306;40.960;14.836;2023-05-07T08:47:07;5.13;;;3.03;;
31724;SDS011;18306;40.960;14.836;2023-05-07T08:49:39;3.38;;;2.90;;
31724;SDS011;18306;40.960;14.836;2023-05-07T08:52:08;7.28;;;4.32;;
31724;SDS011;18306;40.960;14.836;2023-05-07T08:54:36;4.40;;;3.28;;
31724;SDS011;18306;40.960;14.836;2023-05-07T08:57:06;5.30;;;3.95;;
31724;SDS011;18306;40.960;14.836;2023-05-07T08:59:37;4.72;;;3.03;;
31724;SDS011;18306;40.960;14.836;2023-05-07T09:02:05;9.63;;;4.00;;
31724;SDS011;18306;40.960;14.836;2023-05-07T09:04:40;5.93;;;3.83;;
31724;SDS011;18306;40.960;14.836;2023-05-07T09:07:07;6.40;;;4.40;;
31724;SDS011;18306;40.960;14.836;2023-05-07T09:09:41;4.50;;;3.42;;
31724;SDS011;18306;40.960;14.836;2023-05-07T09:12:18;5.68;;;3.53;;
31724;SDS011;18306;40.960;14.836;2023-05-07T09:14:45;6.53;;;4.40;;
31724;SDS011;18306;40.960;14.836;2023-05-07T09:17:13;5.68;;;3.70;;
31724;SDS011;18306;40.960;14.836;2023-05-07T09:19:43;5.40;;;3.75;;
31724;SDS011;18306;40.960;14.836;2023-05-07T09:22:16;7.03;;;3.55;;
31724;SDS011;18306;40.960;14.836;2023-05-07T09:25:03;5.38;;;3.70;;
31724;SDS011;18306;40.960;14.836;2023-05-07T09:27:31;3.55;;;3.22;;
31724;SDS011;18306;40.960;14.836;2023-05-07T09:30:06;6.68;;;4.20;;
31724;SDS011;18306;40.960;14.836;2023-05-07T09:32:38;5.80;;;3.70;;
31724;SDS011;18306;40.960;14.836;2023-05-07T09:35:16;6.47;;;3.15;;
31724;SDS011;18306;40.960;14.836;2023-05-07T09:37:57;5.03;;;3.63;;
31724;SDS011;18306;40.960;14.836;2023-05-07T09:40:27;5.68;;;3.58;;
31724;SDS011;18306;40.960;14.836;2023-05-07T09:43:08;4.55;;;3.40;;
31724;SDS011;18306;40.960;14.836;2023-05-07T09:45:43;3.78;;;3.40;;
31724;SDS011;18306;40.960;14.836;2023-05-07T09:48:12;9.30;;;3.80;;
31724;SDS011;18306;40.960;14.836;2023-05-07T09:50:49;8.18;;;4.65;;
31724;SDS011;18306;40.960;14.836;2023-05-07T09:53:24;4.78;;;4.00;;
31724;SDS011;18306;40.960;14.836;2023-05-07T09:55:54;8.15;;;3.92;;
31724;SDS011;18306;40.960;14.836;2023-05-07T09:58:24;8.02;;;4.28;;
31724;SDS011;18306;40.960;14.836;2023-05-07T10:00:54;6.38;;;3.83;;
31724;SDS011;18306;40.960;14.836;2023-05-07T10:03:23;6.20;;;4.10;;
31724;SDS011;18306;40.960;14.836;2023-05-07T10:06:01;4.28;;;3.75;;
31724;SDS011;18306;40.960;14.836;2023-05-07T10:08:30;4.65;;;3.60;;
31724;SDS011;18306;40.960;14.836;2023-05-07T10:11:00;7.53;;;4.28;;
31724;SDS011;18306;40.960;14.836;2023-05-07T10:13:31;9.02;;;4.53;;
31724;SDS011;18306;40.960;14.836;2023-05-07T10:16:07;5.53;;;3.90;;
31724;SDS011;18306;40.960;14.836;2023-05-07T10:18:43;6.28;;;4.07;;
31724;SDS011;18306;40.960;14.836;2023-05-07T10:23:57;7.00;;;3.63;;
31724;SDS011;18306;40.960;14.836;2023-05-07T10:26:33;4.20;;;3.28;;
31724;SDS011;18306;40.960;14.836;2023-05-07T10:29:04;4.47;;;3.38;;
31724;SDS011;18306;40.960;14.836;2023-05-07T10:34:32;5.72;;;3.92;;
31724;SDS011;18306;40.960;14.836;2023-05-07T10:37:07;6.50;;;3.63;;
31724;SDS011;18306;40.960;14.836;2023-05-07T10:39:39;5.80;;;4.22;;
31724;SDS011;18306;40.960;14.836;2023-05-07T10:42:14;6.07;;;4.22;;
31724;SDS011;18306;40.960;14.836;2023-05-07T10:45:14;6.07;;;4.18;;
31724;SDS011;18306;40.960;14.836;2023-05-07T10:50:42;7.10;;;4.28;;
31724;SDS011;18306;40.960;14.836;2023-05-07T10:58:48;4.47;;;3.88;;
31724;SDS011;18306;40.960;14.836;2023-05-07T11:01:56;7.25;;;4.57;;
31724;SDS011;18306;40.960;14.836;2023-05-07T11:04:35;8.60;;;4.32;;
31724;SDS011;18306;40.960;14.836;2023-05-07T11:07:21;8.55;;;4.22;;
31724;SDS011;18306;40.960;14.836;2023-05-07T11:09:54;11.95;;;4.40;;
31724;SDS011;18306;40.960;14.836;2023-05-07T11:15:13;9.52;;;4.65;;
31724;SDS011;18306;40.960;14.836;2023-05-07T11:17:56;9.85;;;4.38;;
31724;SDS011;18306;40.960;14.836;2023-05-07T11:26:31;6.55;;;4.40;;
31724;SDS011;18306;40.960;14.836;2023-05-07T11:29:12;8.77;;;4.88;;
31724;SDS011;18306;40.960;14.836;2023-05-07T11:31:51;5.28;;;3.88;;
31724;SDS011;18306;40.960;14.836;2023-05-07T11:34:25;7.13;;;4.87;;
31724;SDS011;18306;40.960;14.836;2023-05-07T11:36:55;4.32;;;3.80;;
31724;SDS011;18306;40.960;14.836;2023-05-07T11:39:36;6.05;;;3.95;;
31724;SDS011;18306;40.960;14.836;2023-05-07T11:42:03;7.65;;;3.90;;
31724;SDS011;18306;40.960;14.836;2023-05-07T11:44:40;6.95;;;4.03;;
31724;SDS011;18306;40.960;14.836;2023-05-07T11:47:09;7.05;;;4.22;;
31724;SDS011;18306;40.960;14.836;2023-05-07T11:49:36;6.10;;;3.90;;
31724;SDS011;18306;40.960;14.836;2023-05-07T11:52:03;8.40;;;4.50;;
31724;SDS011;18306;40.960;14.836;2023-05-07T11:54:37;5.28;;;3.45;;
31724;SDS011;18306;40.960;14.836;2023-05-07T11:57:04;9.60;;;4.75;;
31724;SDS011;18306;40.960;14.836;2023-05-07T11:59:38;5.80;;;4.32;;
31724;SDS011;18306;40.960;14.836;2023-05-07T12:02:10;6.03;;;4.25;;
31724;SDS011;18306;40.960;14.836;2023-05-07T12:04:39;5.85;;;4.47;;
31724;SDS011;18306;40.960;14.836;2023-05-07T12:07:16;4.93;;;4.20;;
31724;SDS011;18306;40.960;14.836;2023-05-07T12:09:44;9.85;;;4.70;;
31724;SDS011;18306;40.960;14.836;2023-05-07T12:12:12;8.23;;;5.55;;
31724;SDS011;18306;40.960;14.836;2023-05-07T12:14:42;22.80;;;16.08;;
31724;SDS011;18306;40.960;14.836;2023-05-07T12:17:10;10.35;;;8.15;;
31724;SDS011;18306;40.960;14.836;2023-05-07T12:19:39;11.07;;;5.53;;
31724;SDS011;18306;40.960;14.836;2023-05-07T12:22:07;19.85;;;8.65;;
31724;SDS011;18306;40.960;14.836;2023-05-07T12:24:45;7.68;;;4.68;;
31724;SDS011;18306;40.960;14.836;2023-05-07T12:27:13;5.75;;;4.05;;
31724;SDS011;18306;40.960;14.836;2023-05-07T12:29:48;8.38;;;5.28;;
31724;SDS011;18306;40.960;14.836;2023-05-07T12:32:16;6.47;;;4.60;;
31724;SDS011;18306;40.960;14.836;2023-05-07T12:34:45;16.08;;;5.00;;
31724;SDS011;18306;40.960;14.836;2023-05-07T12:37:14;6.85;;;4.28;;
31724;SDS011;18306;40.960;14.836;2023-05-07T12:39:47;11.65;;;5.22;;
31724;SDS011;18306;40.960;14.836;2023-05-07T12:42:15;8.63;;;4.60;;
31724;SDS011;18306;40.960;14.836;2023-05-07T12:44:45;6.15;;;4.40;;
31724;SDS011;18306;40.960;14.836;2023-05-07T12:47:14;7.93;;;5.28;;
31724;SDS011;18306;40.960;14.836;2023-05-07T12:49:41;6.93;;;4.63;;
31724;SDS011;18306;40.960;14.836;2023-05-07T12:52:12;7.80;;;5.53;;
31724;SDS011;18306;40.960;14.836;2023-05-07T12:54:39;8.98;;;5.45;;
31724;SDS011;18306;40.960;14.836;2023-05-07T12:57:07;8.10;;;5.80;;
31724;SDS011;18306;40.960;14.836;2023-05-07T12:59:37;10.25;;;5.70;;
31724;SDS011;18306;40.960;14.836;2023-05-07T13:02:08;8.93;;;5.18;;
31724;SDS011;18306;40.960;14.836;2023-05-07T13:04:38;9.35;;;5.63;;
31724;SDS011;18306;40.960;14.836;2023-05-07T13:07:06;11.10;;;5.45;;
31724;SDS011;18306;40.960;14.836;2023-05-07T13:09:35;12.00;;;6.25;;
31724;SDS011;18306;40.960;14.836;2023-05-07T13:12:30;8.55;;;5.32;;
31724;SDS011;18306;40.960;14.836;2023-05-07T13:15:04;8.00;;;5.63;;
31724;SDS011;18306;40.960;14.836;2023-05-07T13:17:41;11.50;;;5.55;;
31724;SDS011;18306;40.960;14.836;2023-05-07T13:20:19;9.90;;;5.28;;
31724;SDS011;18306;40.960;14.836;2023-05-07T13:22:50;10.48;;;5.75;;
31724;SDS011;18306;40.960;14.836;2023-05-07T13:25:17;7.65;;;4.32;;
31724;SDS011;18306;40.960;14.836;2023-05-07T13:27:44;7.05;;;4.45;;
31724;SDS011;18306;40.960;14.836;2023-05-07T13:30:20;12.32;;;5.57;;
31724;SDS011;18306;40.960;14.836;2023-05-07T13:32:48;6.25;;;5.07;;
31724;SDS011;18306;40.960;14.836;2023-05-07T13:35:29;6.13;;;4.95;;
31724;SDS011;18306;40.960;14.836;2023-05-07T13:37:56;7.18;;;4.65;;
31724;SDS011;18306;40.960;14.836;2023-05-07T13:40:23;11.48;;;4.97;;
31724;SDS011;18306;40.960;14.836;2023-05-07T13:42:56;10.93;;;4.57;;
31724;SDS011;18306;40.960;14.836;2023-05-07T13:45:24;6.55;;;4.50;;
31724;SDS011;18306;40.960;14.836;2023-05-07T13:47:52;8.10;;;5.22;;
31724;SDS011;18306;40.960;14.836;2023-05-07T13:50:18;8.65;;;4.38;;
31724;SDS011;18306;40.960;14.836;2023-05-07T13:52:46;9.85;;;5.10;;
31724;SDS011;18306;40.960;14.836;2023-05-07T13:55:23;10.80;;;5.47;;
31724;SDS011;18306;40.960;14.836;2023-05-07T13:57:56;7.22;;;4.93;;
31724;SDS011;18306;40.960;14.836;2023-05-07T14:00:25;7.00;;;4.70;;
31724;SDS011;18306;40.960;14.836;2023-05-07T14:02:53;8.38;;;4.18;;
31724;SDS011;18306;40.960;14.836;2023-05-07T14:05:21;10.77;;;4.82;;
31724;SDS011;18306;40.960;14.836;2023-05-07T14:07:54;5.63;;;4.47;;
31724;SDS011;18306;40.960;14.836;2023-05-07T14:10:23;8.00;;;4.68;;
31724;SDS011;18306;40.960;14.836;2023-05-07T14:12:50;4.55;;;3.85;;
31724;SDS011;18306;40.960;14.836;2023-05-07T14:15:18;7.28;;;4.25;;
31724;SDS011;18306;40.960;14.836;2023-05-07T14:17:46;6.40;;;4.07;;
31724;SDS011;18306;40.960;14.836;2023-05-07T14:20:13;8.07;;;4.28;;
31724;SDS011;18306;40.960;14.836;2023-05-07T14:22:40;8.70;;;4.25;;
31724;SDS011;18306;40.960;14.836;2023-05-07T14:25:07;7.40;;;3.47;;
31724;SDS011;18306;40.960;14.836;2023-05-07T14:27:38;8.55;;;4.53;;
31724;SDS011;18306;40.960;14.836;2023-05-07T14:30:06;6.72;;;4.07;;
31724;SDS011;18306;40.960;14.836;2023-05-07T14:32:33;6.43;;;4.43;;
31724;SDS011;18306;40.960;14.836;2023-05-07T14:35:01;7.07;;;4.57;;
31724;SDS011;18306;40.960;14.836;2023-05-07T14:37:33;6.05;;;4.40;;
31724;SDS011;18306;40.960;14.836;2023-05-07T14:40:00;6.97;;;4.85;;
31724;SDS011;18306;40.960;14.836;2023-05-07T14:42:27;5.38;;;3.80;;
31724;SDS011;18306;40.960;14.836;2023-05-07T14:44:56;9.77;;;4.07;;
31724;SDS011;18306;40.960;14.836;2023-05-07T14:47:29;7.17;;;4.23;;
31724;SDS011;18306;40.960;14.836;2023-05-07T14:49:56;5.50;;;4.10;;
31724;SDS011;18306;40.960;14.836;2023-05-07T14:52:24;8.95;;;4.78;;
31724;SDS011;18306;40.960;14.836;2023-05-07T14:54:52;5.20;;;3.35;;
31724;SDS011;18306;40.960;14.836;2023-05-07T14:57:20;5.90;;;3.90;;
31724;SDS011;18306;40.960;14.836;2023-05-07T14:59:49;5.35;;;4.07;;
31724;SDS011;18306;40.960;14.836;2023-05-07T15:02:16;5.25;;;4.05;;
31724;SDS011;18306;40.960;14.836;2023-05-07T15:04:44;7.55;;;4.53;;
31724;SDS011;18306;40.960;14.836;2023-05-07T15:07:16;5.32;;;4.00;;